Airfield :
LOGIN :

Register | Disclaimer

   EN    FR    IT 

 










Legend :    VFR   Marginal VFR   IFR   Intensive IFR   Very Intensive IFR
Visi :
Ceiling :
>= 8 km
>= 3000ft
5 to 8 km
1000 to 3000 ft
1500m to 5 km
500 to 1000 ft
800 to 1500m
200 to 500 ft
< 800m
< 200 ft
Symbols :   Thunderstorms  Fog  Heavy snow  Heavy precipitations  Wind > 20 kt
SIGMETs :     Misc.  Thunderstorms  Icing  Turbulence  Mountain Waves  Volcanic Ashes







- Airport Elevation : 238 ft
- IATA code : FAB
- Download approach charts


EGLF - Farnborough

CURRENT METAR :
  • 211350Z AUTO 22010KT 9999 FEW049/// 21/10 Q1026

EXPIRED METARs :
  • 211320Z AUTO 20010KT 170V230 9999 FEW046/// 21/10 Q1026
  • 211250Z AUTO 19010KT 140V230 9999 SCT045 21/10 Q1026
  • 211220Z AUTO 18008KT 150V210 9999 SCT043/// 21/10 Q1026
  • 211150Z 22008KT 180V240 9999 SCT038 BKN048 20/11 Q1026
  • 211120Z 23010KT 9999 BKN038 19/10 Q1027

TAF TAF EGLF
Valid from the 21 at 12:00 until the 21 at 21:00 UTC


211056Z 2112/2121 21009KT 9999 FEW045
ATIS : +44 09063 800 400 (*282)
No reported NOTAMs for that airfield.



MET'MAP, your aeronautical weather chart ! - Copyright ORBIFLY December 2007 - Disclaimer

ORBIFLY MET'MAP TEAM :

Programming & Development : Alexandra Zaïnal
Concept & Development : Baudouin d'Aumeries
Co-Development & Prog : Marc-Olivier Méhu
Technical & hardware support : Manuel Goepfert

Contact : metmap@orbifly.com




SOURCES & CREDITS :

   NOAA